sensor_id;sensor_type;location;lat;lon;timestamp;P1;durP1;ratioP1;P2;durP2;ratioP2
37517;SDS011;23366;52.498;13.446;2023-03-01T00:01:12;15.02;;;6.35;;
37517;SDS011;23366;52.498;13.446;2023-03-01T00:03:56;9.60;;;5.63;;
37517;SDS011;23366;52.498;13.446;2023-03-01T00:06:23;14.20;;;6.60;;
37517;SDS011;23366;52.498;13.446;2023-03-01T00:08:49;11.23;;;5.90;;
37517;SDS011;23366;52.498;13.446;2023-03-01T00:11:16;18.13;;;7.35;;
37517;SDS011;23366;52.498;13.446;2023-03-01T00:13:45;12.68;;;5.22;;
37517;SDS011;23366;52.498;13.446;2023-03-01T00:16:13;17.75;;;7.13;;
37517;SDS011;23366;52.498;13.446;2023-03-01T00:18:41;13.70;;;7.03;;
37517;SDS011;23366;52.498;13.446;2023-03-01T00:21:06;13.60;;;6.90;;
37517;SDS011;23366;52.498;13.446;2023-03-01T00:23:36;18.33;;;7.57;;
37517;SDS011;23366;52.498;13.446;2023-03-01T00:26:05;15.95;;;6.95;;
37517;SDS011;23366;52.498;13.446;2023-03-01T00:28:32;21.88;;;8.95;;
37517;SDS011;23366;52.498;13.446;2023-03-01T00:31:04;18.73;;;7.93;;
37517;SDS011;23366;52.498;13.446;2023-03-01T00:33:30;17.55;;;8.13;;
37517;SDS011;23366;52.498;13.446;2023-03-01T00:35:57;17.42;;;9.02;;
37517;SDS011;23366;52.498;13.446;2023-03-01T00:38:23;25.48;;;11.50;;
37517;SDS011;23366;52.498;13.446;2023-03-01T00:40:49;18.85;;;9.10;;
37517;SDS011;23366;52.498;13.446;2023-03-01T00:43:14;27.80;;;9.45;;
37517;SDS011;23366;52.498;13.446;2023-03-01T00:45:40;21.30;;;9.43;;
37517;SDS011;23366;52.498;13.446;2023-03-01T00:48:08;17.15;;;7.53;;
37517;SDS011;23366;52.498;13.446;2023-03-01T00:50:33;19.15;;;9.07;;
37517;SDS011;23366;52.498;13.446;2023-03-01T00:52:59;28.70;;;9.10;;
37517;SDS011;23366;52.498;13.446;2023-03-01T00:55:25;17.25;;;7.45;;
37517;SDS011;23366;52.498;13.446;2023-03-01T00:57:50;23.42;;;8.75;;
37517;SDS011;23366;52.498;13.446;2023-03-01T01:00:16;20.35;;;8.60;;
37517;SDS011;23366;52.498;13.446;2023-03-01T01:02:44;21.20;;;9.02;;
37517;SDS011;23366;52.498;13.446;2023-03-01T01:05:09;18.02;;;8.43;;
37517;SDS011;23366;52.498;13.446;2023-03-01T01:07:35;26.08;;;7.90;;
37517;SDS011;23366;52.498;13.446;2023-03-01T01:10:01;16.50;;;8.63;;
37517;SDS011;23366;52.498;13.446;2023-03-01T01:12:27;27.67;;;10.00;;
37517;SDS011;23366;52.498;13.446;2023-03-01T01:14:53;15.93;;;7.95;;
37517;SDS011;23366;52.498;13.446;2023-03-01T01:17:19;24.52;;;9.52;;
37517;SDS011;23366;52.498;13.446;2023-03-01T01:19:44;22.98;;;8.82;;
37517;SDS011;23366;52.498;13.446;2023-03-01T01:22:10;21.40;;;11.60;;
37517;SDS011;23366;52.498;13.446;2023-03-01T01:24:35;18.17;;;8.02;;
37517;SDS011;23366;52.498;13.446;2023-03-01T01:27:01;19.33;;;8.98;;
37517;SDS011;23366;52.498;13.446;2023-03-01T01:29:26;21.60;;;8.60;;
37517;SDS011;23366;52.498;13.446;2023-03-01T01:31:52;16.02;;;8.10;;
37517;SDS011;23366;52.498;13.446;2023-03-01T01:34:21;19.15;;;8.27;;
37517;SDS011;23366;52.498;13.446;2023-03-01T01:36:48;14.15;;;6.13;;
37517;SDS011;23366;52.498;13.446;2023-03-01T01:39:15;15.65;;;6.90;;
37517;SDS011;23366;52.498;13.446;2023-03-01T01:41:41;23.40;;;7.57;;
37517;SDS011;23366;52.498;13.446;2023-03-01T01:44:20;15.23;;;5.60;;
37517;SDS011;23366;52.498;13.446;2023-03-01T01:54:59;15.43;;;7.13;;
37517;SDS011;23366;52.498;13.446;2023-03-01T01:57:41;20.30;;;6.50;;
37517;SDS011;23366;52.498;13.446;2023-03-01T02:00:16;14.75;;;7.68;;
37517;SDS011;23366;52.498;13.446;2023-03-01T02:05:15;17.27;;;8.13;;
37517;SDS011;23366;52.498;13.446;2023-03-01T02:07:54;18.10;;;7.95;;
37517;SDS011;23366;52.498;13.446;2023-03-01T02:10:21;17.75;;;7.95;;
37517;SDS011;23366;52.498;13.446;2023-03-01T02:12:48;18.02;;;7.85;;
37517;SDS011;23366;52.498;13.446;2023-03-01T02:15:14;18.60;;;8.60;;
37517;SDS011;23366;52.498;13.446;2023-03-01T02:17:40;17.30;;;8.13;;
37517;SDS011;23366;52.498;13.446;2023-03-01T02:22:39;16.65;;;7.07;;
37517;SDS011;23366;52.498;13.446;2023-03-01T02:30:44;11.23;;;6.38;;
37517;SDS011;23366;52.498;13.446;2023-03-01T02:33:31;23.13;;;8.75;;
37517;SDS011;23366;52.498;13.446;2023-03-01T02:35:58;12.38;;;7.57;;
37517;SDS011;23366;52.498;13.446;2023-03-01T02:38:34;16.27;;;6.95;;
37517;SDS011;23366;52.498;13.446;2023-03-01T02:41:00;17.90;;;6.13;;
37517;SDS011;23366;52.498;13.446;2023-03-01T02:43:30;12.35;;;6.68;;
37517;SDS011;23366;52.498;13.446;2023-03-01T02:46:02;15.15;;;7.97;;
37517;SDS011;23366;52.498;13.446;2023-03-01T02:48:38;13.75;;;7.82;;
37517;SDS011;23366;52.498;13.446;2023-03-01T02:51:09;15.48;;;7.00;;
37517;SDS011;23366;52.498;13.446;2023-03-01T02:54:03;10.15;;;5.95;;
37517;SDS011;23366;52.498;13.446;2023-03-01T02:56:37;18.92;;;7.57;;
37517;SDS011;23366;52.498;13.446;2023-03-01T02:59:03;11.43;;;6.00;;
37517;SDS011;23366;52.498;13.446;2023-03-01T03:01:31;17.17;;;6.55;;
37517;SDS011;23366;52.498;13.446;2023-03-01T03:04:06;16.90;;;6.80;;
37517;SDS011;23366;52.498;13.446;2023-03-01T03:06:34;18.90;;;7.13;;
37517;SDS011;23366;52.498;13.446;2023-03-01T03:09:00;13.55;;;7.22;;
37517;SDS011;23366;52.498;13.446;2023-03-01T03:11:26;17.80;;;7.97;;
37517;SDS011;23366;52.498;13.446;2023-03-01T03:13:52;16.23;;;8.70;;
37517;SDS011;23366;52.498;13.446;2023-03-01T03:16:19;10.75;;;6.43;;
37517;SDS011;23366;52.498;13.446;2023-03-01T03:18:45;16.30;;;7.72;;
37517;SDS011;23366;52.498;13.446;2023-03-01T03:21:11;13.60;;;7.85;;
37517;SDS011;23366;52.498;13.446;2023-03-01T03:23:37;17.05;;;7.38;;
37517;SDS011;23366;52.498;13.446;2023-03-01T03:26:03;15.07;;;7.57;;
37517;SDS011;23366;52.498;13.446;2023-03-01T03:28:39;13.73;;;7.68;;
37517;SDS011;23366;52.498;13.446;2023-03-01T03:31:05;18.30;;;8.20;;
37517;SDS011;23366;52.498;13.446;2023-03-01T03:33:32;18.83;;;7.30;;
37517;SDS011;23366;52.498;13.446;2023-03-01T03:35:58;17.83;;;8.52;;
37517;SDS011;23366;52.498;13.446;2023-03-01T03:38:24;16.33;;;8.00;;
37517;SDS011;23366;52.498;13.446;2023-03-01T03:40:55;16.10;;;7.15;;
37517;SDS011;23366;52.498;13.446;2023-03-01T03:43:27;16.85;;;7.53;;
37517;SDS011;23366;52.498;13.446;2023-03-01T03:45:52;15.00;;;8.00;;
37517;SDS011;23366;52.498;13.446;2023-03-01T03:48:19;18.58;;;8.00;;
37517;SDS011;23366;52.498;13.446;2023-03-01T03:50:49;13.27;;;8.10;;
37517;SDS011;23366;52.498;13.446;2023-03-01T03:53:16;22.02;;;7.57;;
37517;SDS011;23366;52.498;13.446;2023-03-01T03:55:48;16.45;;;8.13;;
37517;SDS011;23366;52.498;13.446;2023-03-01T03:58:14;20.20;;;10.38;;
37517;SDS011;23366;52.498;13.446;2023-03-01T04:00:42;24.88;;;10.30;;
37517;SDS011;23366;52.498;13.446;2023-03-01T04:03:09;18.30;;;9.40;;
37517;SDS011;23366;52.498;13.446;2023-03-01T04:05:36;23.33;;;10.55;;
37517;SDS011;23366;52.498;13.446;2023-03-01T04:08:02;27.15;;;10.00;;
37517;SDS011;23366;52.498;13.446;2023-03-01T04:10:33;20.15;;;10.63;;
37517;SDS011;23366;52.498;13.446;2023-03-01T04:13:07;27.42;;;10.63;;
37517;SDS011;23366;52.498;13.446;2023-03-01T04:15:36;22.15;;;9.40;;
37517;SDS011;23366;52.498;13.446;2023-03-01T04:18:03;19.02;;;9.82;;
37517;SDS011;23366;52.498;13.446;2023-03-01T04:20:29;20.08;;;9.65;;
37517;SDS011;23366;52.498;13.446;2023-03-01T04:23:00;15.93;;;8.90;;
37517;SDS011;23366;52.498;13.446;2023-03-01T04:25:48;24.58;;;10.05;;
37517;SDS011;23366;52.498;13.446;2023-03-01T04:28:24;19.05;;;10.32;;
37517;SDS011;23366;52.498;13.446;2023-03-01T04:31:19;21.33;;;10.17;;
37517;SDS011;23366;52.498;13.446;2023-03-01T04:33:49;21.63;;;9.52;;
37517;SDS011;23366;52.498;13.446;2023-03-01T04:38:46;27.25;;;11.57;;
37517;SDS011;23366;52.498;13.446;2023-03-01T04:41:12;26.40;;;12.95;;
37517;SDS011;23366;52.498;13.446;2023-03-01T04:43:39;24.23;;;9.93;;
37517;SDS011;23366;52.498;13.446;2023-03-01T04:46:07;19.58;;;11.55;;
37517;SDS011;23366;52.498;13.446;2023-03-01T04:48:36;20.30;;;9.43;;
37517;SDS011;23366;52.498;13.446;2023-03-01T04:51:05;19.27;;;10.32;;
37517;SDS011;23366;52.498;13.446;2023-03-01T04:53:38;25.73;;;10.43;;
37517;SDS011;23366;52.498;13.446;2023-03-01T04:56:05;27.98;;;11.60;;
37517;SDS011;23366;52.498;13.446;2023-03-01T04:58:32;21.33;;;10.77;;
37517;SDS011;23366;52.498;13.446;2023-03-01T05:01:17;25.33;;;10.98;;
37517;SDS011;23366;52.498;13.446;2023-03-01T05:04:10;21.42;;;11.13;;
37517;SDS011;23366;52.498;13.446;2023-03-01T05:06:38;24.17;;;12.60;;
37517;SDS011;23366;52.498;13.446;2023-03-01T05:09:08;20.48;;;9.93;;
37517;SDS011;23366;52.498;13.446;2023-03-01T05:11:34;19.08;;;10.52;;
37517;SDS011;23366;52.498;13.446;2023-03-01T05:14:03;21.55;;;11.98;;
37517;SDS011;23366;52.498;13.446;2023-03-01T05:16:44;19.08;;;10.38;;
37517;SDS011;23366;52.498;13.446;2023-03-01T05:19:51;20.98;;;11.35;;
37517;SDS011;23366;52.498;13.446;2023-03-01T05:22:17;26.90;;;12.25;;
37517;SDS011;23366;52.498;13.446;2023-03-01T05:24:44;22.27;;;12.65;;
37517;SDS011;23366;52.498;13.446;2023-03-01T05:27:12;25.30;;;11.23;;
37517;SDS011;23366;52.498;13.446;2023-03-01T05:29:38;22.45;;;11.18;;
37517;SDS011;23366;52.498;13.446;2023-03-01T05:32:04;24.10;;;12.55;;
37517;SDS011;23366;52.498;13.446;2023-03-01T05:34:32;30.60;;;12.07;;
37517;SDS011;23366;52.498;13.446;2023-03-01T05:37:00;20.17;;;11.98;;
37517;SDS011;23366;52.498;13.446;2023-03-01T05:39:27;21.13;;;10.77;;
37517;SDS011;23366;52.498;13.446;2023-03-01T05:41:58;28.02;;;13.27;;
37517;SDS011;23366;52.498;13.446;2023-03-01T05:44:26;19.48;;;9.68;;
37517;SDS011;23366;52.498;13.446;2023-03-01T05:46:52;20.70;;;10.55;;
37517;SDS011;23366;52.498;13.446;2023-03-01T05:49:18;25.27;;;12.20;;
37517;SDS011;23366;52.498;13.446;2023-03-01T05:51:49;25.00;;;11.55;;
37517;SDS011;23366;52.498;13.446;2023-03-01T05:54:19;25.27;;;11.48;;
37517;SDS011;23366;52.498;13.446;2023-03-01T05:56:48;22.27;;;10.20;;
37517;SDS011;23366;52.498;13.446;2023-03-01T06:02:05;24.40;;;10.07;;
37517;SDS011;23366;52.498;13.446;2023-03-01T06:04:30;22.90;;;10.60;;
37517;SDS011;23366;52.498;13.446;2023-03-01T06:06:56;25.23;;;12.55;;
37517;SDS011;23366;52.498;13.446;2023-03-01T06:09:21;27.02;;;11.63;;
37517;SDS011;23366;52.498;13.446;2023-03-01T06:11:47;21.33;;;10.40;;
37517;SDS011;23366;52.498;13.446;2023-03-01T06:14:13;23.42;;;11.27;;
37517;SDS011;23366;52.498;13.446;2023-03-01T06:16:40;26.10;;;14.13;;
37517;SDS011;23366;52.498;13.446;2023-03-01T06:19:06;25.02;;;12.95;;
37517;SDS011;23366;52.498;13.446;2023-03-01T06:21:33;24.75;;;12.10;;
37517;SDS011;23366;52.498;13.446;2023-03-01T06:23:59;24.27;;;12.43;;
37517;SDS011;23366;52.498;13.446;2023-03-01T06:26:24;26.63;;;11.40;;
37517;SDS011;23366;52.498;13.446;2023-03-01T06:28:50;29.33;;;12.85;;
37517;SDS011;23366;52.498;13.446;2023-03-01T06:31:15;24.23;;;12.60;;
37517;SDS011;23366;52.498;13.446;2023-03-01T06:33:41;26.63;;;14.88;;
37517;SDS011;23366;52.498;13.446;2023-03-01T06:36:14;29.00;;;15.57;;
37517;SDS011;23366;52.498;13.446;2023-03-01T06:38:43;32.10;;;16.67;;
37517;SDS011;23366;52.498;13.446;2023-03-01T06:41:09;26.35;;;13.40;;
37517;SDS011;23366;52.498;13.446;2023-03-01T06:43:34;27.23;;;14.07;;
37517;SDS011;23366;52.498;13.446;2023-03-01T06:46:03;27.92;;;14.32;;
37517;SDS011;23366;52.498;13.446;2023-03-01T06:48:30;31.33;;;12.98;;
37517;SDS011;23366;52.498;13.446;2023-03-01T06:50:59;28.88;;;14.45;;
37517;SDS011;23366;52.498;13.446;2023-03-01T06:53:26;20.30;;;11.57;;
37517;SDS011;23366;52.498;13.446;2023-03-01T06:55:56;21.88;;;11.05;;
37517;SDS011;23366;52.498;13.446;2023-03-01T06:58:22;21.17;;;11.93;;
37517;SDS011;23366;52.498;13.446;2023-03-01T07:00:58;19.88;;;12.07;;
37517;SDS011;23366;52.498;13.446;2023-03-01T07:03:25;27.75;;;12.50;;
37517;SDS011;23366;52.498;13.446;2023-03-01T07:05:51;25.98;;;12.43;;
37517;SDS011;23366;52.498;13.446;2023-03-01T07:08:18;28.35;;;11.05;;
37517;SDS011;23366;52.498;13.446;2023-03-01T07:10:57;25.88;;;13.50;;
37517;SDS011;23366;52.498;13.446;2023-03-01T07:13:24;24.45;;;11.55;;
37517;SDS011;23366;52.498;13.446;2023-03-01T07:15:49;26.67;;;12.60;;
37517;SDS011;23366;52.498;13.446;2023-03-01T07:18:18;21.63;;;11.57;;
37517;SDS011;23366;52.498;13.446;2023-03-01T07:20:51;18.55;;;10.65;;
37517;SDS011;23366;52.498;13.446;2023-03-01T07:23:17;24.63;;;11.25;;
37517;SDS011;23366;52.498;13.446;2023-03-01T07:25:44;29.23;;;12.45;;
37517;SDS011;23366;52.498;13.446;2023-03-01T07:28:47;26.40;;;12.82;;
37517;SDS011;23366;52.498;13.446;2023-03-01T07:31:54;28.17;;;12.07;;
37517;SDS011;23366;52.498;13.446;2023-03-01T07:34:19;24.80;;;12.30;;
37517;SDS011;23366;52.498;13.446;2023-03-01T07:36:53;25.70;;;11.70;;
37517;SDS011;23366;52.498;13.446;2023-03-01T07:39:28;17.38;;;10.90;;
37517;SDS011;23366;52.498;13.446;2023-03-01T07:42:16;22.80;;;11.48;;
37517;SDS011;23366;52.498;13.446;2023-03-01T07:45:11;19.05;;;9.07;;
37517;SDS011;23366;52.498;13.446;2023-03-01T07:47:41;21.30;;;11.48;;
37517;SDS011;23366;52.498;13.446;2023-03-01T07:50:16;18.40;;;10.82;;
37517;SDS011;23366;52.498;13.446;2023-03-01T07:52:44;22.17;;;9.70;;
37517;SDS011;23366;52.498;13.446;2023-03-01T07:55:19;26.55;;;11.95;;
37517;SDS011;23366;52.498;13.446;2023-03-01T07:57:45;26.95;;;13.85;;
37517;SDS011;23366;52.498;13.446;2023-03-01T08:00:11;31.17;;;14.27;;
37517;SDS011;23366;52.498;13.446;2023-03-01T08:02:39;24.17;;;10.82;;
37517;SDS011;23366;52.498;13.446;2023-03-01T08:05:16;23.70;;;12.55;;
37517;SDS011;23366;52.498;13.446;2023-03-01T08:07:44;20.10;;;10.95;;
37517;SDS011;23366;52.498;13.446;2023-03-01T08:10:15;23.98;;;11.35;;
37517;SDS011;23366;52.498;13.446;2023-03-01T08:12:44;18.40;;;9.57;;
37517;SDS011;23366;52.498;13.446;2023-03-01T08:15:12;21.83;;;10.13;;
37517;SDS011;23366;52.498;13.446;2023-03-01T08:17:55;21.25;;;8.73;;
37517;SDS011;23366;52.498;13.446;2023-03-01T08:20:46;16.40;;;8.15;;
37517;SDS011;23366;52.498;13.446;2023-03-01T08:23:21;10.80;;;6.53;;
37517;SDS011;23366;52.498;13.446;2023-03-01T08:26:06;24.15;;;7.30;;
37517;SDS011;23366;52.498;13.446;2023-03-01T08:28:44;14.02;;;6.13;;
37517;SDS011;23366;52.498;13.446;2023-03-01T08:33:56;11.63;;;6.15;;
37517;SDS011;23366;52.498;13.446;2023-03-01T08:36:42;15.75;;;6.05;;
37517;SDS011;23366;52.498;13.446;2023-03-01T08:42:42;11.65;;;6.43;;
37517;SDS011;23366;52.498;13.446;2023-03-01T08:45:30;19.90;;;7.53;;
37517;SDS011;23366;52.498;13.446;2023-03-01T08:47:59;10.45;;;6.72;;
37517;SDS011;23366;52.498;13.446;2023-03-01T08:50:25;8.93;;;4.90;;
37517;SDS011;23366;52.498;13.446;2023-03-01T08:52:56;17.45;;;6.22;;
37517;SDS011;23366;52.498;13.446;2023-03-01T08:55:42;14.02;;;7.03;;
37517;SDS011;23366;52.498;13.446;2023-03-01T08:58:11;11.85;;;6.60;;
37517;SDS011;23366;52.498;13.446;2023-03-01T09:00:37;9.02;;;4.88;;
37517;SDS011;23366;52.498;13.446;2023-03-01T09:05:59;11.10;;;5.28;;
37517;SDS011;23366;52.498;13.446;2023-03-01T09:08:39;13.52;;;5.85;;
37517;SDS011;23366;52.498;13.446;2023-03-01T09:11:32;10.65;;;5.25;;
37517;SDS011;23366;52.498;13.446;2023-03-01T09:14:18;7.18;;;4.25;;
37517;SDS011;23366;52.498;13.446;2023-03-01T09:16:44;9.60;;;5.10;;
37517;SDS011;23366;52.498;13.446;2023-03-01T09:19:14;7.25;;;5.28;;
37517;SDS011;23366;52.498;13.446;2023-03-01T09:24:35;12.05;;;5.20;;
37517;SDS011;23366;52.498;13.446;2023-03-01T09:27:04;13.23;;;5.72;;
37517;SDS011;23366;52.498;13.446;2023-03-01T09:29:33;8.30;;;4.00;;
37517;SDS011;23366;52.498;13.446;2023-03-01T09:32:08;9.27;;;4.88;;
37517;SDS011;23366;52.498;13.446;2023-03-01T09:34:36;6.90;;;4.38;;
37517;SDS011;23366;52.498;13.446;2023-03-01T09:37:20;8.63;;;3.85;;
37517;SDS011;23366;52.498;13.446;2023-03-01T09:39:46;7.40;;;4.60;;
37517;SDS011;23366;52.498;13.446;2023-03-01T09:42:15;9.40;;;5.57;;
37517;SDS011;23366;52.498;13.446;2023-03-01T09:45:05;11.32;;;5.38;;
37517;SDS011;23366;52.498;13.446;2023-03-01T09:50:13;11.15;;;3.63;;
37517;SDS011;23366;52.498;13.446;2023-03-01T09:52:43;7.50;;;4.13;;
37517;SDS011;23366;52.498;13.446;2023-03-01T09:55:20;10.02;;;4.72;;
37517;SDS011;23366;52.498;13.446;2023-03-01T10:01:24;12.95;;;4.03;;
37517;SDS011;23366;52.498;13.446;2023-03-01T10:06:47;6.97;;;4.00;;
37517;SDS011;23366;52.498;13.446;2023-03-01T10:09:41;11.30;;;4.63;;
37517;SDS011;23366;52.498;13.446;2023-03-01T10:12:16;10.00;;;4.20;;
37517;SDS011;23366;52.498;13.446;2023-03-01T10:20:10;6.65;;;3.38;;
37517;SDS011;23366;52.498;13.446;2023-03-01T10:22:45;10.57;;;3.88;;
37517;SDS011;23366;52.498;13.446;2023-03-01T10:25:17;5.88;;;3.00;;
37517;SDS011;23366;52.498;13.446;2023-03-01T10:27:55;8.40;;;3.13;;
37517;SDS011;23366;52.498;13.446;2023-03-01T10:30:32;4.30;;;3.08;;
37517;SDS011;23366;52.498;13.446;2023-03-01T10:33:13;7.78;;;3.88;;
37517;SDS011;23366;52.498;13.446;2023-03-01T10:35:45;4.72;;;3.15;;
37517;SDS011;23366;52.498;13.446;2023-03-01T10:38:17;7.10;;;3.50;;
37517;SDS011;23366;52.498;13.446;2023-03-01T10:40:55;9.05;;;4.22;;
37517;SDS011;23366;52.498;13.446;2023-03-01T10:43:25;9.45;;;3.88;;
37517;SDS011;23366;52.498;13.446;2023-03-01T10:49:12;8.20;;;4.35;;
37517;SDS011;23366;52.498;13.446;2023-03-01T10:51:46;9.07;;;3.85;;
37517;SDS011;23366;52.498;13.446;2023-03-01T10:54:38;9.98;;;3.55;;
37517;SDS011;23366;52.498;13.446;2023-03-01T10:57:44;7.55;;;3.80;;
37517;SDS011;23366;52.498;13.446;2023-03-01T11:00:46;5.63;;;3.05;;
37517;SDS011;23366;52.498;13.446;2023-03-01T11:03:22;11.93;;;7.10;;
37517;SDS011;23366;52.498;13.446;2023-03-01T11:06:23;5.93;;;3.53;;
37517;SDS011;23366;52.498;13.446;2023-03-01T11:09:13;7.15;;;3.38;;
37517;SDS011;23366;52.498;13.446;2023-03-01T11:11:46;4.55;;;3.05;;
37517;SDS011;23366;52.498;13.446;2023-03-01T11:14:27;6.10;;;2.65;;
37517;SDS011;23366;52.498;13.446;2023-03-01T11:17:04;6.20;;;2.53;;
37517;SDS011;23366;52.498;13.446;2023-03-01T11:19:39;8.55;;;2.38;;
37517;SDS011;23366;52.498;13.446;2023-03-01T11:22:47;5.82;;;3.00;;
37517;SDS011;23366;52.498;13.446;2023-03-01T11:25:23;2.53;;;2.17;;
37517;SDS011;23366;52.498;13.446;2023-03-01T11:27:57;6.22;;;3.85;;
37517;SDS011;23366;52.498;13.446;2023-03-01T11:30:27;5.45;;;2.30;;
37517;SDS011;23366;52.498;13.446;2023-03-01T11:33:10;6.35;;;3.70;;
37517;SDS011;23366;52.498;13.446;2023-03-01T11:35:42;6.07;;;3.03;;
37517;SDS011;23366;52.498;13.446;2023-03-01T11:40:52;3.83;;;2.30;;
37517;SDS011;23366;52.498;13.446;2023-03-01T11:49:14;3.17;;;2.20;;
37517;SDS011;23366;52.498;13.446;2023-03-01T11:52:06;3.78;;;1.42;;
37517;SDS011;23366;52.498;13.446;2023-03-01T11:55:14;2.92;;;1.60;;
37517;SDS011;23366;52.498;13.446;2023-03-01T12:06:09;5.55;;;2.00;;
37517;SDS011;23366;52.498;13.446;2023-03-01T12:25:44;2.80;;;1.50;;
37517;SDS011;23366;52.498;13.446;2023-03-01T12:31:02;1.95;;;1.48;;
37517;SDS011;23366;52.498;13.446;2023-03-01T12:39:19;2.47;;;1.25;;
37517;SDS011;23366;52.498;13.446;2023-03-01T12:45:30;3.38;;;1.52;;
37517;SDS011;23366;52.498;13.446;2023-03-01T12:51:26;10.45;;;1.73;;
37517;SDS011;23366;52.498;13.446;2023-03-01T12:53:57;6.55;;;1.83;;
37517;SDS011;23366;52.498;13.446;2023-03-01T12:56:43;5.57;;;1.48;;
37517;SDS011;23366;52.498;13.446;2023-03-01T13:26:39;2.88;;;1.67;;
37517;SDS011;23366;52.498;13.446;2023-03-01T13:36:48;2.53;;;1.55;;
37517;SDS011;23366;52.498;13.446;2023-03-01T14:23:56;2.50;;;1.27;;
37517;SDS011;23366;52.498;13.446;2023-03-01T14:26:56;4.63;;;2.03;;
37517;SDS011;23366;52.498;13.446;2023-03-01T14:29:40;3.03;;;1.67;;
37517;SDS011;23366;52.498;13.446;2023-03-01T14:35:42;3.58;;;2.13;;
37517;SDS011;23366;52.498;13.446;2023-03-01T14:38:49;2.05;;;1.35;;
37517;SDS011;23366;52.498;13.446;2023-03-01T14:41:19;3.33;;;1.40;;
37517;SDS011;23366;52.498;13.446;2023-03-01T14:47:51;1.60;;;0.98;;
37517;SDS011;23366;52.498;13.446;2023-03-01T14:50:42;6.22;;;1.00;;
37517;SDS011;23366;52.498;13.446;2023-03-01T14:53:29;3.25;;;1.38;;
37517;SDS011;23366;52.498;13.446;2023-03-01T14:56:25;1.35;;;1.25;;
37517;SDS011;23366;52.498;13.446;2023-03-01T15:02:18;6.43;;;1.30;;
37517;SDS011;23366;52.498;13.446;2023-03-01T15:04:55;2.97;;;1.83;;
37517;SDS011;23366;52.498;13.446;2023-03-01T15:07:30;2.65;;;1.17;;
37517;SDS011;23366;52.498;13.446;2023-03-01T15:10:03;3.33;;;1.58;;
37517;SDS011;23366;52.498;13.446;2023-03-01T15:12:37;4.72;;;1.55;;
37517;SDS011;23366;52.498;13.446;2023-03-01T15:18:05;2.10;;;1.27;;
37517;SDS011;23366;52.498;13.446;2023-03-01T15:20:39;2.15;;;1.30;;
37517;SDS011;23366;52.498;13.446;2023-03-01T15:23:05;5.13;;;1.85;;
37517;SDS011;23366;52.498;13.446;2023-03-01T15:25:44;2.47;;;1.13;;
37517;SDS011;23366;52.498;13.446;2023-03-01T15:28:12;4.55;;;2.00;;
37517;SDS011;23366;52.498;13.446;2023-03-01T15:30:46;3.83;;;1.40;;
37517;SDS011;23366;52.498;13.446;2023-03-01T15:35:57;3.45;;;1.45;;
37517;SDS011;23366;52.498;13.446;2023-03-01T15:38:50;2.22;;;1.52;;
37517;SDS011;23366;52.498;13.446;2023-03-01T15:41:31;2.47;;;1.92;;
37517;SDS011;23366;52.498;13.446;2023-03-01T15:44:48;2.20;;;1.33;;
37517;SDS011;23366;52.498;13.446;2023-03-01T15:46:53;5.25;;;1.98;;
37517;SDS011;23366;52.498;13.446;2023-03-01T15:49:40;6.32;;;1.88;;
37517;SDS011;23366;52.498;13.446;2023-03-01T15:52:10;3.30;;;1.80;;
37517;SDS011;23366;52.498;13.446;2023-03-01T15:54:40;3.00;;;1.55;;
37517;SDS011;23366;52.498;13.446;2023-03-01T15:57:13;3.28;;;1.60;;
37517;SDS011;23366;52.498;13.446;2023-03-01T15:59:45;2.88;;;1.33;;
37517;SDS011;23366;52.498;13.446;2023-03-01T16:02:14;1.67;;;1.38;;
37517;SDS011;23366;52.498;13.446;2023-03-01T16:04:39;4.03;;;1.30;;
37517;SDS011;23366;52.498;13.446;2023-03-01T16:07:05;4.18;;;2.40;;
37517;SDS011;23366;52.498;13.446;2023-03-01T16:09:31;20.48;;;1.98;;
37517;SDS011;23366;52.498;13.446;2023-03-01T16:11:57;2.80;;;1.13;;
37517;SDS011;23366;52.498;13.446;2023-03-01T16:14:23;5.95;;;1.88;;
37517;SDS011;23366;52.498;13.446;2023-03-01T16:16:51;2.83;;;1.50;;
37517;SDS011;23366;52.498;13.446;2023-03-01T16:19:18;2.63;;;1.60;;
37517;SDS011;23366;52.498;13.446;2023-03-01T16:21:43;5.57;;;1.85;;
37517;SDS011;23366;52.498;13.446;2023-03-01T16:24:11;6.07;;;1.95;;
37517;SDS011;23366;52.498;13.446;2023-03-01T16:26:37;2.53;;;1.67;;
37517;SDS011;23366;52.498;13.446;2023-03-01T16:29:03;2.85;;;1.98;;
37517;SDS011;23366;52.498;13.446;2023-03-01T16:38:17;1.80;;;1.15;;
37517;SDS011;23366;52.498;13.446;2023-03-01T16:41:59;3.60;;;1.40;;
37517;SDS011;23366;52.498;13.446;2023-03-01T16:44:42;5.05;;;2.78;;
37517;SDS011;23366;52.498;13.446;2023-03-01T16:47:14;4.00;;;2.42;;
37517;SDS011;23366;52.498;13.446;2023-03-01T16:53:31;7.10;;;2.83;;
37517;SDS011;23366;52.498;13.446;2023-03-01T16:56:05;4.50;;;2.30;;
37517;SDS011;23366;52.498;13.446;2023-03-01T16:59:14;3.35;;;1.90;;
37517;SDS011;23366;52.498;13.446;2023-03-01T17:01:40;3.70;;;2.30;;
37517;SDS011;23366;52.498;13.446;2023-03-01T17:04:08;3.50;;;2.08;;
37517;SDS011;23366;52.498;13.446;2023-03-01T17:06:43;6.25;;;3.35;;
37517;SDS011;23366;52.498;13.446;2023-03-01T17:12:13;8.30;;;3.00;;
37517;SDS011;23366;52.498;13.446;2023-03-01T17:14:40;5.75;;;3.08;;
37517;SDS011;23366;52.498;13.446;2023-03-01T17:17:09;9.40;;;3.92;;
37517;SDS011;23366;52.498;13.446;2023-03-01T17:20:05;8.25;;;3.47;;
37517;SDS011;23366;52.498;13.446;2023-03-01T17:22:34;5.13;;;3.15;;
37517;SDS011;23366;52.498;13.446;2023-03-01T17:28:36;4.50;;;2.15;;
37517;SDS011;23366;52.498;13.446;2023-03-01T17:31:12;6.32;;;3.03;;
37517;SDS011;23366;52.498;13.446;2023-03-01T17:37:24;8.63;;;2.30;;
37517;SDS011;23366;52.498;13.446;2023-03-01T17:39:54;6.82;;;2.10;;
37517;SDS011;23366;52.498;13.446;2023-03-01T17:42:20;9.13;;;3.03;;
37517;SDS011;23366;52.498;13.446;2023-03-01T17:44:54;4.35;;;2.55;;
37517;SDS011;23366;52.498;13.446;2023-03-01T17:47:19;9.20;;;4.15;;
37517;SDS011;23366;52.498;13.446;2023-03-01T17:49:45;10.57;;;3.15;;
37517;SDS011;23366;52.498;13.446;2023-03-01T17:52:10;7.88;;;3.35;;
37517;SDS011;23366;52.498;13.446;2023-03-01T17:54:39;7.20;;;3.35;;
37517;SDS011;23366;52.498;13.446;2023-03-01T17:57:05;4.93;;;2.65;;
37517;SDS011;23366;52.498;13.446;2023-03-01T17:59:36;8.07;;;3.63;;
37517;SDS011;23366;52.498;13.446;2023-03-01T18:02:01;5.88;;;3.20;;
37517;SDS011;23366;52.498;13.446;2023-03-01T18:04:27;11.32;;;3.60;;
37517;SDS011;23366;52.498;13.446;2023-03-01T18:06:53;5.65;;;3.05;;
37517;SDS011;23366;52.498;13.446;2023-03-01T18:09:19;6.20;;;2.63;;
37517;SDS011;23366;52.498;13.446;2023-03-01T18:11:48;6.13;;;3.40;;
37517;SDS011;23366;52.498;13.446;2023-03-01T18:14:17;7.30;;;3.08;;
37517;SDS011;23366;52.498;13.446;2023-03-01T18:16:42;8.07;;;4.10;;
37517;SDS011;23366;52.498;13.446;2023-03-01T18:19:09;9.27;;;4.50;;
37517;SDS011;23366;52.498;13.446;2023-03-01T18:21:35;12.18;;;3.70;;
37517;SDS011;23366;52.498;13.446;2023-03-01T18:24:00;10.95;;;4.93;;
37517;SDS011;23366;52.498;13.446;2023-03-01T18:26:26;8.50;;;4.15;;
37517;SDS011;23366;52.498;13.446;2023-03-01T18:28:53;7.75;;;3.33;;
37517;SDS011;23366;52.498;13.446;2023-03-01T18:31:22;8.00;;;4.18;;
37517;SDS011;23366;52.498;13.446;2023-03-01T18:33:50;13.82;;;5.25;;